Ulusoy-15 — TCUP4 — position and weather

sailwx.info

Track history (hours):
 
Tides and Currents Weather Stations Pressure Air Temp Water Temp Dewpoint Dewpoint Depression Visibility Wind Speed Wind Dir Waves Ship Positions

Ulusoy-15

Last reported at 2017-Sep-24 06:30 UTC. Time now 2017-Sep-24 06:58 UTC.
Position N 44°52' E 013°21'.

Length 208 m; draft 6.5 m.

Type: Ship (hazmat cat A). MMSI: 271043165.

Date/timePositionNaut miles runAvg speedWind from/ knotsBaromVisibWave heightAir tempDewpointWater temp
2017-Sep-24 06:30N 44°52' E 013°21'816.7
2017-Sep-24 06:00N 44°59' E 013°15'816.8
2017-Sep-24 05:31N 45°06' E 013°09'816.5
2017-Sep-24 05:00N 45°13' E 013°04'816.4
2017-Sep-24 04:30N 45°21' E 013°02'917.0
2017-Sep-24 04:00N 45°28' E 013°10'816.9
2017-Sep-24 03:30N 45°34' E 013°19'816.7
2017-Sep-24 03:00N 45°37' E 013°30'815.4
2017-Sep-24 02:30N 45°39' E 013°40'4 7.2
2017-Sep-24 01:57N 45°38' E 013°46'0 0.0
2017-Sep-24 01:30N 45°38' E 013°46'0 0.0
2017-Sep-24 01:00N 45°38' E 013°46'0 0.0
2017-Sep-24 00:30N 45°38' E 013°46'0 0.0
2017-Sep-24 00:00N 45°38' E 013°46'0 0.0
2017-Sep-23 23:30N 45°38' E 013°46'0 0.0
2017-Sep-23 23:00N 45°38' E 013°46'0 0.0
2017-Sep-23 22:30N 45°38' E 013°46'0 0.0
2017-Sep-23 22:00N 45°38' E 013°46'0 0.0
2017-Sep-23 21:30N 45°38' E 013°46'0 0.0
2017-Sep-23 21:00N 45°38' E 013°46'0 0.0
2017-Sep-23 20:30N 45°38' E 013°46'0 0.0
2017-Sep-23 20:00N 45°38' E 013°46'  
2017-Sep-21 06:34N 37°14' E 024°48'116.7
2017-Sep-21 06:30N 37°15' E 024°49'816.6
2017-Sep-21 06:00N 37°20' E 024°57'816.9
2017-Sep-21 05:30N 37°25' E 025°06'816.8
2017-Sep-21 05:00N 37°30' E 025°14'816.8
2017-Sep-21 04:30N 37°36' E 025°22'816.9
2017-Sep-21 04:00N 37°41' E 025°30'816.3
2017-Sep-21 03:30N 37°47' E 025°38'5 0.1
2017-Sep-19 06:30N 37°49' E 025°43'917.2
2017-Sep-19 06:00N 37°45' E 025°34'817.0
2017-Sep-19 05:30N 37°39' E 025°26'816.8
2017-Sep-19 05:00N 37°33' E 025°18'816.5
2017-Sep-19 04:30N 37°28' E 025°10'816.6
2017-Sep-19 04:00N 37°23' E 025°02'816.5
2017-Sep-19 03:31N 37°17' E 024°55'2416.4
2017-Sep-19 02:03N 37°03' E 024°31'116.3
2017-Sep-19 02:00N 37°02' E 024°30'816.7
2017-Sep-19 01:30N 36°57' E 024°21'816.2
2017-Sep-19 01:00N 36°53' E 024°13'816.1
2017-Sep-19 00:31N 36°49' E 024°05'816.5
2017-Sep-19 00:01N 36°44' E 023°56'816.7
2017-Sep-18 23:30N 36°39' E 023°48'816.4
2017-Sep-18 23:01N 36°35' E 023°39'816.7
2017-Sep-18 22:30N 36°30' E 023°30'1017.1
2017-Sep-18 21:56N 36°24' E 023°21'10315.1
2017-Sep-18 15:07N 37°02' E 021°21'916.8
2017-Sep-18 14:35N 37°08' E 021°13'116.5
2017-Sep-18 14:30N 37°09' E 021°12'1516.9
2017-Sep-18 13:37N 37°21' E 021°00'216.9
2017-Sep-18 13:30N 37°22' E 020°58'11416.6
2017-Sep-18 06:37N 38°57' E 019°37'216.2
2017-Sep-18 06:30N 38°59' E 019°36'816.6
2017-Sep-18 06:00N 39°06' E 019°31'816.7
2017-Sep-18 05:30N 39°13' E 019°25'1016.8
2017-Sep-18 04:56N 39°21' E 019°18'916.9
2017-Sep-18 04:25N 39°29' E 019°12'3416.7
2017-Sep-18 02:24N 39°58' E 018°50'32416.6
2017-Sep-17 06:53N 44°04' E 014°06'616.0
2017-Sep-17 06:31N 44°09' E 014°02'816.2
2017-Sep-17 06:01N 44°15' E 013°55'816.0
2017-Sep-17 05:31N 44°22' E 013°49'815.8
2017-Sep-17 05:01N 44°29' E 013°43'815.7
2017-Sep-17 04:30N 44°35' E 013°37'815.8
2017-Sep-17 04:01N 44°42' E 013°31'815.7
2017-Sep-17 03:30N 44°48' E 013°25'815.8
2017-Sep-17 03:00N 44°55' E 013°19'815.8
2017-Sep-17 02:30N 45°02' E 013°13'815.9
2017-Sep-17 02:01N 45°08' E 013°07'815.9
2017-Sep-17 01:30N 45°16' E 013°03'815.5
2017-Sep-17 01:00N 45°24' E 013°03'816.3
2017-Sep-17 00:31N 45°30' E 013°10'816.5
2017-Sep-17 00:01N 45°34' E 013°21'816.1
2017-Sep-16 23:31N 45°37' E 013°31'815.2
2017-Sep-16 23:00N 45°39' E 013°42'3 5.5
2017-Sep-16 22:30N 45°38' E 013°46'0 0.0
2017-Sep-16 21:57N 45°38' E 013°46'0 0.0
2017-Sep-16 21:30N 45°38' E 013°46'0 0.0
2017-Sep-16 21:00N 45°38' E 013°46'0 0.0
2017-Sep-16 20:30N 45°38' E 013°46'0 0.0
2017-Sep-16 20:00N 45°38' E 013°46'0 0.0
2017-Sep-16 19:30N 45°38' E 013°46'0 0.0
2017-Sep-16 19:00N 45°38' E 013°46'0 0.0
2017-Sep-16 18:30N 45°38' E 013°46'0 0.0
2017-Sep-16 18:00N 45°38' E 013°46'0 0.0
2017-Sep-16 17:30N 45°38' E 013°46'0 0.0
2017-Sep-16 17:00N 45°38' E 013°46'0 0.0
2017-Sep-16 16:30N 45°38' E 013°46'0 0.0
2017-Sep-16 16:00N 45°38' E 013°46'0 0.0
2017-Sep-16 15:30N 45°38' E 013°46'0 0.0
2017-Sep-16 15:00N 45°38' E 013°46'0 0.0
2017-Sep-16 14:30N 45°38' E 013°46'0 0.0
2017-Sep-16 14:00N 45°38' E 013°46'0 0.0
2017-Sep-16 13:30N 45°38' E 013°46'0 0.0
2017-Sep-16 13:00N 45°38' E 013°46'0 0.0
2017-Sep-16 12:30N 45°38' E 013°46'0 0.0
2017-Sep-16 12:00N 45°38' E 013°46'0 0.0
2017-Sep-16 11:30N 45°38' E 013°46'3 5.1
2017-Sep-16 11:00N 45°39' E 013°42'714.9
2017-Sep-16 10:30N 45°35' E 013°33'816.1
2017-Sep-16 10:00N 45°31' E 013°24'815.9
2017-Sep-16 09:30N 45°25' E 013°15'714.3
2017-Sep-16 09:00N 45°18' E 013°13'816.0
2017-Sep-16 08:30N 45°11' E 013°16'816.2
2017-Sep-16 08:00N 45°03' E 013°20'816.1
2017-Sep-16 07:30N 44°55' E 013°23'816.2
2017-Sep-16 07:00N 44°48' E 013°30'816.2
2017-Sep-16 06:30N 44°42' E 013°36'816.0
2017-Sep-16 06:00N 44°35' E 013°42'816.0
2017-Sep-16 05:30N 44°28' E 013°48'815.8
2017-Sep-16 05:00N 44°22' E 013°54'815.6
2017-Sep-16 04:30N 44°15' E 014°00'815.7
2017-Sep-16 04:00N 44°09' E 014°06'816.0
2017-Sep-16 03:30N 44°02' E 014°13'33816.2
2017-Sep-15 06:38N 39°44' E 019°07'18916.5
2017-Sep-14 19:14N 37°06' E 021°17'9314.6
2017-Sep-14 12:50N 36°25' E 023°02'515.8
2017-Sep-14 12:30N 36°25' E 023°08'9416.2
2017-Sep-14 06:43N 37°15' E 024°48'416.5
2017-Sep-14 06:30N 37°17' E 024°51'  
Track history (hours):
 
Tides and Currents Weather Stations Pressure Air Temp Water Temp Dewpoint Dewpoint Depression Visibility Wind Speed Wind Dir Waves Ship Positions

Ulusoy-15

Last reported at 2017-Sep-24 06:30 UTC. Time now 2017-Sep-24 06:58 UTC.
Position N 44°52' E 013°21'.

Length 208 m; draft 6.5 m.

Type: Ship (hazmat cat A). MMSI: 271043165.

Date/timePositionNaut miles runAvg speedWind from/ knotsBaromVisibWave heightAir tempDewpointWater temp
2017-Sep-24 06:30N 44°52' E 013°21'816.7
2017-Sep-24 06:00N 44°59' E 013°15'816.8
2017-Sep-24 05:31N 45°06' E 013°09'816.5
2017-Sep-24 05:00N 45°13' E 013°04'816.4
2017-Sep-24 04:30N 45°21' E 013°02'917.0
2017-Sep-24 04:00N 45°28' E 013°10'816.9
2017-Sep-24 03:30N 45°34' E 013°19'816.7
2017-Sep-24 03:00N 45°37' E 013°30'815.4
2017-Sep-24 02:30N 45°39' E 013°40'4 7.2
2017-Sep-24 01:57N 45°38' E 013°46'0 0.0
2017-Sep-24 01:30N 45°38' E 013°46'0 0.0
2017-Sep-24 01:00N 45°38' E 013°46'0 0.0
2017-Sep-24 00:30N 45°38' E 013°46'0 0.0
2017-Sep-24 00:00N 45°38' E 013°46'0 0.0
2017-Sep-23 23:30N 45°38' E 013°46'0 0.0
2017-Sep-23 23:00N 45°38' E 013°46'0 0.0
2017-Sep-23 22:30N 45°38' E 013°46'0 0.0
2017-Sep-23 22:00N 45°38' E 013°46'0 0.0
2017-Sep-23 21:30N 45°38' E 013°46'0 0.0
2017-Sep-23 21:00N 45°38' E 013°46'0 0.0
2017-Sep-23 20:30N 45°38' E 013°46'0 0.0
2017-Sep-23 20:00N 45°38' E 013°46'  
2017-Sep-21 06:34N 37°14' E 024°48'116.7
2017-Sep-21 06:30N 37°15' E 024°49'816.6
2017-Sep-21 06:00N 37°20' E 024°57'816.9
2017-Sep-21 05:30N 37°25' E 025°06'816.8
2017-Sep-21 05:00N 37°30' E 025°14'816.8
2017-Sep-21 04:30N 37°36' E 025°22'816.9
2017-Sep-21 04:00N 37°41' E 025°30'816.3
2017-Sep-21 03:30N 37°47' E 025°38'5 0.1
2017-Sep-19 06:30N 37°49' E 025°43'917.2
2017-Sep-19 06:00N 37°45' E 025°34'817.0
2017-Sep-19 05:30N 37°39' E 025°26'816.8
2017-Sep-19 05:00N 37°33' E 025°18'816.5
2017-Sep-19 04:30N 37°28' E 025°10'816.6
2017-Sep-19 04:00N 37°23' E 025°02'816.5
2017-Sep-19 03:31N 37°17' E 024°55'2416.4
2017-Sep-19 02:03N 37°03' E 024°31'116.3
2017-Sep-19 02:00N 37°02' E 024°30'816.7
2017-Sep-19 01:30N 36°57' E 024°21'816.2
2017-Sep-19 01:00N 36°53' E 024°13'816.1
2017-Sep-19 00:31N 36°49' E 024°05'816.5
2017-Sep-19 00:01N 36°44' E 023°56'816.7
2017-Sep-18 23:30N 36°39' E 023°48'816.4
2017-Sep-18 23:01N 36°35' E 023°39'816.7
2017-Sep-18 22:30N 36°30' E 023°30'1017.1
2017-Sep-18 21:56N 36°24' E 023°21'10315.1
2017-Sep-18 15:07N 37°02' E 021°21'916.8
2017-Sep-18 14:35N 37°08' E 021°13'116.5
2017-Sep-18 14:30N 37°09' E 021°12'1516.9
2017-Sep-18 13:37N 37°21' E 021°00'216.9
2017-Sep-18 13:30N 37°22' E 020°58'11416.6
2017-Sep-18 06:37N 38°57' E 019°37'216.2
2017-Sep-18 06:30N 38°59' E 019°36'816.6
2017-Sep-18 06:00N 39°06' E 019°31'816.7
2017-Sep-18 05:30N 39°13' E 019°25'1016.8
2017-Sep-18 04:56N 39°21' E 019°18'916.9
2017-Sep-18 04:25N 39°29' E 019°12'3416.7
2017-Sep-18 02:24N 39°58' E 018°50'32416.6
2017-Sep-17 06:53N 44°04' E 014°06'616.0
2017-Sep-17 06:31N 44°09' E 014°02'816.2
2017-Sep-17 06:01N 44°15' E 013°55'816.0
2017-Sep-17 05:31N 44°22' E 013°49'815.8
2017-Sep-17 05:01N 44°29' E 013°43'815.7
2017-Sep-17 04:30N 44°35' E 013°37'815.8
2017-Sep-17 04:01N 44°42' E 013°31'815.7
2017-Sep-17 03:30N 44°48' E 013°25'815.8
2017-Sep-17 03:00N 44°55' E 013°19'815.8
2017-Sep-17 02:30N 45°02' E 013°13'815.9
2017-Sep-17 02:01N 45°08' E 013°07'815.9
2017-Sep-17 01:30N 45°16' E 013°03'815.5
2017-Sep-17 01:00N 45°24' E 013°03'816.3
2017-Sep-17 00:31N 45°30' E 013°10'816.5
2017-Sep-17 00:01N 45°34' E 013°21'816.1
2017-Sep-16 23:31N 45°37' E 013°31'815.2
2017-Sep-16 23:00N 45°39' E 013°42'3 5.5
2017-Sep-16 22:30N 45°38' E 013°46'0 0.0
2017-Sep-16 21:57N 45°38' E 013°46'0 0.0
2017-Sep-16 21:30N 45°38' E 013°46'0 0.0
2017-Sep-16 21:00N 45°38' E 013°46'0 0.0
2017-Sep-16 20:30N 45°38' E 013°46'0 0.0
2017-Sep-16 20:00N 45°38' E 013°46'0 0.0
2017-Sep-16 19:30N 45°38' E 013°46'0 0.0
2017-Sep-16 19:00N 45°38' E 013°46'0 0.0
2017-Sep-16 18:30N 45°38' E 013°46'0 0.0
2017-Sep-16 18:00N 45°38' E 013°46'0 0.0
2017-Sep-16 17:30N 45°38' E 013°46'0 0.0
2017-Sep-16 17:00N 45°38' E 013°46'0 0.0
2017-Sep-16 16:30N 45°38' E 013°46'0 0.0
2017-Sep-16 16:00N 45°38' E 013°46'0 0.0
2017-Sep-16 15:30N 45°38' E 013°46'0 0.0
2017-Sep-16 15:00N 45°38' E 013°46'0 0.0
2017-Sep-16 14:30N 45°38' E 013°46'0 0.0
2017-Sep-16 14:00N 45°38' E 013°46'0 0.0
2017-Sep-16 13:30N 45°38' E 013°46'0 0.0
2017-Sep-16 13:00N 45°38' E 013°46'0 0.0
2017-Sep-16 12:30N 45°38' E 013°46'0 0.0
2017-Sep-16 12:00N 45°38' E 013°46'0 0.0
2017-Sep-16 11:30N 45°38' E 013°46'3 5.1
2017-Sep-16 11:00N 45°39' E 013°42'714.9
2017-Sep-16 10:30N 45°35' E 013°33'816.1
2017-Sep-16 10:00N 45°31' E 013°24'815.9
2017-Sep-16 09:30N 45°25' E 013°15'714.3
2017-Sep-16 09:00N 45°18' E 013°13'816.0
2017-Sep-16 08:30N 45°11' E 013°16'816.2
2017-Sep-16 08:00N 45°03' E 013°20'816.1
2017-Sep-16 07:30N 44°55' E 013°23'816.2
2017-Sep-16 07:00N 44°48' E 013°30'816.2
2017-Sep-16 06:30N 44°42' E 013°36'816.0
2017-Sep-16 06:00N 44°35' E 013°42'816.0
2017-Sep-16 05:30N 44°28' E 013°48'815.8
2017-Sep-16 05:00N 44°22' E 013°54'815.6
2017-Sep-16 04:30N 44°15' E 014°00'815.7
2017-Sep-16 04:00N 44°09' E 014°06'816.0
2017-Sep-16 03:30N 44°02' E 014°13'33816.2
2017-Sep-15 06:38N 39°44' E 019°07'18916.5
2017-Sep-14 19:14N 37°06' E 021°17'9314.6
2017-Sep-14 12:50N 36°25' E 023°02'515.8
2017-Sep-14 12:30N 36°25' E 023°08'9416.2
2017-Sep-14 06:43N 37°15' E 024°48'416.5
2017-Sep-14 06:30N 37°17' E 024°51'  

Dump ship's entire track history